createdAt,value
2017-03-04T00:00:22.432Z,68.21
2017-03-04T00:00:48.016Z,68.4
2017-03-04T00:01:13.567Z,68.3
2017-03-04T00:01:39.145Z,68.4
2017-03-04T05:01:00.523Z,69.04
2017-03-04T05:01:26.110Z,69.04
2017-03-04T05:01:51.697Z,69.07
2017-03-04T05:02:17.355Z,69.07
2017-03-04T05:02:42.843Z,69.26
2017-03-04T05:03:08.410Z,69.07
2017-03-04T05:03:33.975Z,69.07
2017-03-04T05:03:59.617Z,69.36
2017-03-04T05:04:25.180Z,69.36
2017-03-04T05:04:50.749Z,69.46
2017-03-04T05:05:16.309Z,69.46
2017-03-04T05:05:42.021Z,69.36
2017-03-04T05:06:07.583Z,69.13
2017-03-04T05:06:33.151Z,69.46
2017-03-04T05:06:58.749Z,69.46
2017-03-04T05:07:25.250Z,69.42
2017-03-04T05:07:50.830Z,69.56
2017-03-04T05:08:16.396Z,69.46
2017-03-04T05:08:41.963Z,69.84
2017-03-04T05:09:07.540Z,69.46
2017-03-04T05:09:33.125Z,69.46
2017-03-04T05:09:58.731Z,69.74
2017-03-04T05:10:24.301Z,69.46
2017-03-04T05:10:49.962Z,69.81
2017-03-04T05:11:15.528Z,70
2017-03-04T05:11:41.100Z,69.74
2017-03-04T05:12:06.663Z,69.65
2017-03-04T05:12:32.225Z,70.03
2017-03-04T05:12:57.790Z,69.93
2017-03-04T05:13:23.342Z,70.03
2017-03-04T05:13:48.963Z,69.65
2017-03-04T05:14:14.506Z,69.74
2017-03-04T05:14:40.057Z,69.56
2017-03-04T05:15:05.721Z,69.65
2017-03-04T05:15:31.286Z,69.65
2017-03-04T05:15:56.824Z,69.71
2017-03-04T05:16:22.371Z,69.65
2017-03-04T05:16:47.927Z,69.46
2017-03-04T05:17:13.472Z,69.56
2017-03-04T05:17:39.033Z,69.46
2017-03-04T05:18:04.587Z,69.42
2017-03-04T05:18:30.140Z,69.56
2017-03-04T05:18:55.698Z,69.46
2017-03-04T05:19:22.105Z,69.56
2017-03-04T05:19:48.500Z,69.71
2017-03-04T05:20:14.079Z,69.74
2017-03-04T05:20:39.660Z,69.74
2017-03-04T05:21:05.224Z,69.65
2017-03-04T05:21:30.800Z,69.84
2017-03-04T05:21:56.356Z,69.56
2017-03-04T05:22:21.982Z,69.74
2017-03-04T05:22:47.538Z,69.42
2017-03-04T05:23:13.123Z,69.52
2017-03-04T05:23:38.665Z,69.93
2017-03-04T05:24:04.250Z,69.74
2017-03-04T05:24:29.827Z,69.56
2017-03-04T05:24:55.385Z,69.65
2017-03-04T05:25:20.961Z,69.74
2017-03-04T05:25:47.350Z,69.74
2017-03-04T05:26:12.090Z,69.84
2017-03-04T05:26:37.676Z,69.84
2017-03-04T05:27:03.299Z,69.71
2017-03-04T05:27:29.012Z,69.74
2017-03-04T05:27:54.556Z,69.36
2017-03-04T05:28:20.136Z,69.9
2017-03-04T05:28:45.676Z,69.74
2017-03-04T05:29:12.137Z,69.84
2017-03-04T05:29:37.681Z,70.13
2017-03-04T05:30:03.250Z,70.03
2017-03-04T05:30:28.821Z,69.74
2017-03-04T05:30:54.380Z,69.93
2017-03-04T05:31:19.949Z,69.93
2017-03-04T05:31:45.519Z,69.93
2017-03-04T05:32:11.089Z,69.93
2017-03-04T05:32:36.659Z,69.93
2017-03-04T05:33:02.260Z,70.03
2017-03-04T05:33:27.828Z,69.46
2017-03-04T05:33:53.411Z,70.13
2017-03-04T05:34:18.987Z,70.13
2017-03-04T05:34:44.660Z,70.13
2017-03-04T05:35:13.149Z,70.09
2017-03-04T05:35:38.712Z,70.13
2017-03-04T05:36:04.854Z,69.93
2017-03-04T05:36:29.849Z,70.03
2017-03-04T05:36:55.438Z,69.84
2017-03-04T05:37:21.000Z,69.84
2017-03-04T05:37:47.549Z,70.03
2017-03-04T05:38:13.110Z,70.03
2017-03-04T05:38:38.669Z,69.84
2017-03-04T05:39:04.255Z,70.03
2017-03-04T05:39:29.824Z,69.56
2017-03-04T05:39:55.523Z,69.65
2017-03-04T05:40:21.103Z,70.03
2017-03-04T05:40:46.666Z,69.93
2017-03-04T05:41:12.273Z,70.23
2017-03-04T05:41:37.899Z,69.84
2017-03-04T05:42:03.477Z,69.84
2017-03-04T05:42:29.050Z,69.84
2017-03-04T05:42:54.769Z,69.65
2017-03-04T05:43:20.329Z,69.65
2017-03-04T05:43:45.909Z,69.93
2017-03-04T05:44:11.475Z,69.74
2017-03-04T05:44:37.745Z,69.62
2017-03-04T05:45:03.302Z,69.93
2017-03-04T05:45:29.597Z,69.84
2017-03-04T05:45:55.155Z,69.84
2017-03-04T05:46:20.734Z,69.84
2017-03-04T05:46:46.314Z,70.03
2017-03-04T05:47:11.876Z,70.03
2017-03-04T05:47:37.446Z,69.56
2017-03-04T05:48:03.010Z,69.56
2017-03-04T05:48:28.577Z,69.81
2017-03-04T05:48:54.149Z,69.56
2017-03-04T05:49:19.706Z,69.74
2017-03-04T05:49:45.299Z,69.93
2017-03-04T05:50:10.849Z,70.03
2017-03-04T05:50:36.437Z,69.56
2017-03-04T05:51:02.030Z,69.74
2017-03-04T05:51:27.609Z,69.56
2017-03-04T05:51:53.171Z,69.52
2017-03-04T05:52:18.733Z,69.56
2017-03-04T05:52:45.095Z,69.74
2017-03-04T05:53:10.648Z,69.65
2017-03-04T05:53:36.208Z,69.74
2017-03-04T05:54:01.769Z,70.03
2017-03-04T05:54:27.456Z,69.74
2017-03-04T05:54:53.042Z,69.84
2017-03-04T05:55:18.612Z,69.84
2017-03-04T05:55:44.183Z,69.65
2017-03-04T05:56:09.899Z,69.93
2017-03-04T05:56:35.481Z,69.84
2017-03-04T05:57:01.052Z,69.71
2017-03-04T05:57:26.625Z,69.65
2017-03-04T05:57:52.198Z,69.71
2017-03-04T05:58:17.753Z,69.84
2017-03-04T05:58:44.918Z,70.42
2017-03-04T05:59:10.563Z,69.84
2017-03-04T05:59:36.126Z,69.65
2017-03-04T06:00:01.700Z,69.65
2017-03-04T06:00:27.257Z,70.51
2017-03-04T06:00:52.841Z,69.65
2017-03-04T06:01:18.396Z,70.32
2017-03-04T06:01:43.960Z,70.51
2017-03-04T06:02:09.551Z,70.03
2017-03-04T06:02:35.108Z,70.32
2017-03-04T06:03:00.740Z,70.32
2017-03-04T06:03:26.403Z,70.13
2017-03-04T06:03:51.880Z,70.23
2017-03-04T06:04:18.256Z,70.23
2017-03-04T06:04:44.050Z,70.13
2017-03-04T06:05:09.679Z,70.13
2017-03-04T06:05:35.235Z,70.23
2017-03-04T06:06:00.808Z,70.23
2017-03-04T06:06:26.381Z,70.42
2017-03-04T06:06:51.988Z,70.32
2017-03-04T06:07:17.558Z,70.23
2017-03-04T06:07:43.126Z,70.38
2017-03-04T06:08:08.699Z,70.32
2017-03-04T06:08:34.292Z,70.51
2017-03-04T06:08:59.859Z,70.13
2017-03-04T06:09:25.429Z,70.32
2017-03-04T06:09:51.717Z,70.32
2017-03-04T06:10:17.282Z,70.23
2017-03-04T06:10:42.988Z,70.23
2017-03-04T06:11:08.549Z,70.32
2017-03-04T06:11:34.115Z,70.32
2017-03-04T06:11:59.682Z,70.32
2017-03-04T06:12:25.248Z,70.23
2017-03-04T06:12:50.809Z,70.13
2017-03-04T06:13:49.230Z,69.93
2017-03-04T06:14:14.802Z,70.32
2017-03-04T06:14:40.504Z,70.03
2017-03-04T06:15:33.470Z,70.03
2017-03-04T06:15:59.033Z,70.23
2017-03-04T06:16:24.591Z,70.23
2017-03-04T06:16:50.168Z,70.23
2017-03-04T06:17:15.877Z,70.03
2017-03-04T06:17:41.455Z,70.13
2017-03-04T06:18:07.017Z,70.13
2017-03-04T06:18:32.600Z,70.51
2017-03-04T06:18:58.178Z,70.23
2017-03-04T06:19:23.733Z,70.23
2017-03-04T06:19:49.304Z,70.13
2017-03-04T06:20:14.868Z,70.32
2017-03-04T06:20:40.426Z,70.32
2017-03-04T06:21:06.013Z,70.03
2017-03-04T06:21:31.964Z,70.13
2017-03-04T06:21:57.473Z,70.23
2017-03-04T06:22:23.039Z,70.13
2017-03-04T06:22:48.609Z,70.13
2017-03-04T06:23:14.368Z,70.13
2017-03-04T06:23:40.017Z,69.93
2017-03-04T06:24:05.559Z,70.42
2017-03-04T06:24:31.120Z,70.7
2017-03-04T06:24:56.682Z,70.42
2017-03-04T06:25:22.269Z,70.42
2017-03-04T06:25:47.900Z,70.42
2017-03-04T06:26:14.118Z,70.42
2017-03-04T06:26:39.701Z,70.9
2017-03-04T06:27:05.262Z,70.61
2017-03-04T06:27:30.818Z,70.61
2017-03-04T06:27:56.398Z,70.61
2017-03-04T06:28:21.962Z,70.7
2017-03-04T06:28:47.530Z,70.61
2017-03-04T06:29:13.097Z,70.61
2017-03-04T06:29:38.742Z,70.61
2017-03-04T06:30:04.307Z,70.8
2017-03-04T06:30:29.858Z,70.51
2017-03-04T06:30:55.523Z,70.8
2017-03-04T06:31:21.085Z,70.51
2017-03-04T06:31:46.659Z,70.7
2017-03-04T06:32:12.229Z,70.7
2017-03-04T06:32:37.918Z,70.61
2017-03-04T06:33:03.519Z,70.7
2017-03-04T06:33:29.120Z,70.8
2017-03-04T06:33:54.698Z,70.7
2017-03-04T06:34:20.269Z,70.51
2017-03-04T06:34:45.839Z,70.7
2017-03-04T06:35:11.421Z,70.9
2017-03-04T06:35:36.973Z,70.7
2017-03-04T06:36:02.551Z,70.61
2017-03-04T06:36:28.117Z,70.8
2017-03-04T06:36:54.478Z,70.7
2017-03-04T06:37:20.077Z,70.51
2017-03-04T06:37:45.693Z,70.51
2017-03-04T06:38:11.341Z,70.8
2017-03-04T06:38:36.918Z,70.9
2017-03-04T06:39:02.465Z,70.8
2017-03-04T06:39:28.045Z,70.9
2017-03-04T06:39:53.620Z,70.9
2017-03-04T06:40:19.189Z,70.8
2017-03-04T06:40:44.821Z,70.7
2017-03-04T06:41:10.373Z,70.9
2017-03-04T06:41:35.938Z,70.61
2017-03-04T06:42:01.526Z,70.9
2017-03-04T06:42:54.834Z,70.7
2017-03-04T06:43:20.398Z,70.9
2017-03-04T06:43:45.954Z,70.8
2017-03-04T06:44:11.509Z,70.99
2017-03-04T06:44:37.092Z,70.9
2017-03-04T06:45:02.672Z,70.61
2017-03-04T06:45:28.235Z,71.09
2017-03-04T06:45:53.806Z,70.9
2017-03-04T06:46:19.361Z,71.09
2017-03-04T06:46:44.937Z,70.61
2017-03-04T06:47:10.481Z,70.8
2017-03-04T06:47:36.165Z,70.9
2017-03-04T06:48:01.704Z,70.9
2017-03-04T06:48:27.318Z,70.7
2017-03-04T06:48:52.886Z,70.9
2017-03-04T06:49:18.480Z,70.8
2017-03-04T06:49:44.026Z,70.9
2017-03-04T06:50:09.571Z,70.8
2017-03-04T06:50:35.106Z,70.8
2017-03-04T06:51:00.689Z,70.9
2017-03-04T06:51:26.259Z,70.7
2017-03-04T06:51:51.828Z,70.8
2017-03-04T06:52:17.390Z,70.9
2017-03-04T06:52:43.637Z,70.8
2017-03-04T06:53:08.517Z,70.7
2017-03-04T06:53:34.639Z,70.8
2017-03-04T06:53:59.658Z,70.7
2017-03-04T06:54:25.221Z,70.9
2017-03-04T06:54:50.805Z,70.61
2017-03-04T06:55:16.380Z,70.8
2017-03-04T06:55:41.954Z,70.9
2017-03-04T06:56:07.517Z,70.8
2017-03-04T06:56:33.096Z,71.09
2017-03-04T06:56:58.706Z,70.9
2017-03-04T06:57:24.260Z,70.9
2017-03-04T06:57:49.839Z,70.8
2017-03-04T06:58:15.408Z,70.9
2017-03-04T06:58:41.000Z,70.8
2017-03-04T06:59:06.555Z,70.8
2017-03-04T06:59:32.119Z,71.28
2017-03-04T06:59:57.680Z,71.28
2017-03-04T07:00:23.231Z,71.09
2017-03-04T07:01:36.958Z,71.37
2017-03-04T07:02:02.543Z,70.8
2017-03-04T07:02:28.135Z,70.8
2017-03-04T07:02:53.692Z,71.28
2017-03-04T07:03:19.276Z,70.9
2017-03-04T07:03:44.856Z,71.19
2017-03-04T07:04:10.477Z,71.37
2017-03-04T07:04:36.760Z,70.9
2017-03-04T07:05:01.630Z,70.9
2017-03-04T07:05:27.759Z,70.99
2017-03-04T07:05:52.828Z,71.09
2017-03-04T07:06:19.261Z,71.19
2017-03-04T07:06:44.067Z,70.99
2017-03-04T07:07:09.635Z,71.19
2017-03-04T07:07:35.259Z,71.19
2017-03-04T07:08:00.820Z,70.9
2017-03-04T07:08:26.384Z,70.99
2017-03-04T07:08:51.935Z,70.99
2017-03-04T07:09:17.500Z,71.09
2017-03-04T07:09:43.050Z,71.19
2017-03-04T07:10:08.639Z,70.99
2017-03-04T07:10:34.268Z,70.99
2017-03-04T07:10:59.839Z,71.09
2017-03-04T07:11:26.345Z,71.19
2017-03-04T07:11:51.894Z,71.19
2017-03-04T07:12:17.467Z,70.99
2017-03-04T07:12:43.044Z,71.09
2017-03-04T07:13:08.596Z,71.09
2017-03-04T07:13:34.155Z,71.09
2017-03-04T07:13:59.710Z,71.09
2017-03-04T07:14:25.360Z,71.19
2017-03-04T07:14:50.934Z,71.09
2017-03-04T07:15:17.266Z,71.19
2017-03-04T07:15:42.764Z,71.09
2017-03-04T07:16:08.369Z,71.09
2017-03-04T07:16:33.933Z,71.09
2017-03-04T07:16:59.530Z,71.09
2017-03-04T07:17:25.107Z,71.09
2017-03-04T07:17:51.679Z,71.09
2017-03-04T07:19:09.910Z,71.09
2017-03-04T07:19:35.487Z,71.09
2017-03-04T07:20:01.047Z,71.19
2017-03-04T07:20:27.299Z,70.9
2017-03-04T07:20:52.861Z,71.19
2017-03-04T07:21:18.479Z,71.09
2017-03-04T07:21:44.030Z,70.99
2017-03-04T07:22:09.628Z,70.99
2017-03-04T07:22:35.222Z,71.19
2017-03-04T07:23:01.377Z,70.99
2017-03-04T07:23:27.833Z,71.09
2017-03-04T07:23:53.408Z,71.09
2017-03-04T07:24:18.999Z,71.09
2017-03-04T07:24:44.560Z,70.8
2017-03-04T07:25:10.528Z,70.9
2017-03-04T07:25:36.070Z,70.99
2017-03-04T07:26:01.756Z,71.28
2017-03-04T07:26:27.799Z,71.09
2017-03-04T07:26:53.485Z,71.19
2017-03-04T07:27:19.648Z,71.09
2017-03-04T07:27:45.230Z,71.09
2017-03-04T07:28:11.431Z,70.9
2017-03-04T07:28:37.316Z,71.09
2017-03-04T07:29:02.952Z,71.28
2017-03-04T07:29:28.827Z,71.19
2017-03-04T07:29:54.395Z,71.28
2017-03-04T07:30:20.581Z,70.8
2017-03-04T07:30:46.133Z,70.9
2017-03-04T07:31:11.684Z,70.9
2017-03-04T07:31:37.900Z,70.8
2017-03-04T07:32:05.221Z,71.09
2017-03-04T07:32:29.923Z,71.19
2017-03-04T07:32:55.498Z,70.8
2017-03-04T07:33:21.598Z,70.9
2017-03-04T07:33:47.273Z,70.9
2017-03-04T07:34:13.729Z,70.7
2017-03-04T07:34:39.277Z,71.19
2017-03-04T07:35:04.860Z,71.19
2017-03-04T07:35:30.670Z,71.19
2017-03-04T07:35:56.227Z,71.19
2017-03-04T07:36:22.696Z,71.19
2017-03-04T07:36:48.255Z,70.8
2017-03-04T07:37:13.812Z,71.19
2017-03-04T07:37:39.799Z,71.19
2017-03-04T07:38:05.384Z,70.99
2017-03-04T07:38:31.588Z,70.8
2017-03-04T07:38:57.173Z,70.9
2017-03-04T07:39:22.858Z,70.7
2017-03-04T07:39:48.940Z,71.19
2017-03-04T07:40:14.500Z,71.19
2017-03-04T07:40:40.784Z,71.19
2017-03-04T07:41:06.378Z,71.19
2017-03-04T07:41:31.928Z,71.09
2017-03-04T07:41:58.072Z,70.9
2017-03-04T07:42:23.635Z,71.19
2017-03-04T07:42:49.863Z,71.19
2017-03-04T07:43:15.461Z,70.9
2017-03-04T07:43:41.678Z,71.09
2017-03-04T07:44:07.328Z,70.99
2017-03-04T07:44:32.946Z,70.99
2017-03-04T07:44:59.012Z,70.99
2017-03-04T07:45:24.566Z,71.28
2017-03-04T07:45:50.821Z,71.28
2017-03-04T07:46:16.389Z,70.9
2017-03-04T07:46:42.716Z,71.19
2017-03-04T07:47:08.317Z,71.19
2017-03-04T07:47:33.874Z,70.9
2017-03-04T07:47:59.955Z,71.09
2017-03-04T07:48:25.537Z,70.9
2017-03-04T07:48:51.774Z,70.8
2017-03-04T07:49:17.437Z,71.19
2017-03-04T07:49:43.010Z,71.09
2017-03-04T07:50:09.098Z,70.9
2017-03-04T07:50:34.738Z,71.09
2017-03-04T07:51:00.962Z,70.9
2017-03-04T07:51:26.529Z,70.9
2017-03-04T07:51:52.091Z,71.09
2017-03-04T07:52:18.233Z,70.99
2017-03-04T07:52:43.798Z,71.19
2017-03-04T07:53:10.061Z,71.09
2017-03-04T07:53:35.659Z,71.19
2017-03-04T07:54:01.837Z,71.09
2017-03-04T07:54:27.386Z,70.9
2017-03-04T07:54:52.935Z,71.09
2017-03-04T07:55:19.186Z,71.09
2017-03-04T07:55:44.745Z,71.09
2017-03-04T07:56:10.990Z,70.99
2017-03-04T07:56:36.565Z,71.19
2017-03-04T07:57:02.136Z,71.28
2017-03-04T07:57:28.325Z,71.28
2017-03-04T07:57:53.880Z,71.09
2017-03-04T07:58:20.111Z,70.9
2017-03-04T07:58:45.677Z,70.99
2017-03-04T07:59:11.932Z,70.9
2017-03-04T07:59:37.768Z,71.19
2017-03-04T08:00:03.356Z,70.99
2017-03-04T08:00:29.269Z,71.19
2017-03-04T08:00:54.989Z,70.9
2017-03-04T08:01:21.068Z,71.09
2017-03-04T08:01:46.636Z,71.19
2017-03-04T08:02:12.188Z,70.99
2017-03-04T08:02:38.457Z,71.09
2017-03-04T08:03:04.017Z,70.99
2017-03-04T08:03:30.238Z,71.19
2017-03-04T08:03:55.822Z,70.99
2017-03-04T08:04:21.990Z,71.09
2017-03-04T08:04:47.566Z,71.19
2017-03-04T08:05:13.134Z,71.09
2017-03-04T08:05:39.349Z,71.09
2017-03-04T08:06:04.918Z,71.09
2017-03-04T08:06:31.167Z,71.09
2017-03-04T08:06:56.886Z,71.19
2017-03-04T08:07:22.467Z,71.09
2017-03-04T08:07:48.464Z,71.19
2017-03-04T08:08:14.028Z,70.7
2017-03-04T08:08:40.263Z,71.28
2017-03-04T08:09:05.837Z,71.09
2017-03-04T08:09:32.081Z,71.19
2017-03-04T08:09:57.649Z,71.19
2017-03-04T08:10:23.226Z,70.9
2017-03-04T08:10:49.401Z,70.8
2017-03-04T08:11:14.988Z,71.09
2017-03-04T08:11:41.226Z,71.19
2017-03-04T08:12:06.772Z,71.19
2017-03-04T08:12:33.237Z,70.99
2017-03-04T08:12:58.643Z,71.09
2017-03-04T08:13:24.935Z,71.19
2017-03-04T08:13:50.490Z,71.19
2017-03-04T08:14:16.126Z,70.9
2017-03-04T08:14:42.153Z,71.09
2017-03-04T08:15:07.725Z,71.09
2017-03-04T08:15:33.286Z,71.57
2017-03-04T08:15:59.499Z,71.57
2017-03-04T08:16:25.065Z,72.05
2017-03-04T08:16:51.283Z,71.86
2017-03-04T08:17:16.850Z,72.14
2017-03-04T08:17:42.540Z,72.63
2017-03-04T08:18:08.613Z,72.72
2017-03-04T08:18:34.187Z,72.63
2017-03-04T08:19:00.474Z,72.63
2017-03-04T08:19:26.060Z,72.72
2017-03-04T08:19:52.233Z,72.91
2017-03-04T08:20:17.789Z,72.05
2017-03-04T08:20:43.419Z,72.43
2017-03-04T08:21:09.592Z,72.72
2017-03-04T08:21:35.169Z,72.53
2017-03-04T08:22:01.374Z,72.05
2017-03-04T08:22:26.941Z,72.24
2017-03-04T08:22:52.508Z,71.86
2017-03-04T08:23:18.728Z,71.95
2017-03-04T08:23:44.305Z,72.05
2017-03-04T08:24:10.517Z,71.86
2017-03-04T08:24:36.082Z,71.86
2017-03-04T08:25:02.321Z,71.57
2017-03-04T08:25:27.998Z,71.76
2017-03-04T08:25:53.557Z,71.66
2017-03-04T08:26:19.655Z,71.37
2017-03-04T08:26:45.227Z,71.19
2017-03-04T08:27:11.465Z,71.28
2017-03-04T08:27:37.727Z,71.28
2017-03-04T08:28:03.309Z,71.28
2017-03-04T08:28:28.866Z,71.47
2017-03-04T08:28:54.440Z,71.37
2017-03-04T08:29:20.675Z,71.47
2017-03-04T08:29:46.229Z,71.66
2017-03-04T08:30:12.386Z,71.57
2017-03-04T08:30:38.169Z,71.37
2017-03-04T08:31:03.740Z,71.57
2017-03-04T08:31:29.757Z,71.37
2017-03-04T08:31:55.330Z,71.57
2017-03-04T08:32:21.530Z,70.9
2017-03-04T08:32:47.151Z,71.28
2017-03-04T08:33:12.738Z,71.09
2017-03-04T08:33:38.901Z,71.09
2017-03-04T08:34:04.459Z,71.09
2017-03-04T08:34:30.666Z,71.09
2017-03-04T08:34:56.277Z,70.99
2017-03-04T08:35:22.477Z,70.99
2017-03-04T08:35:48.061Z,70.99
2017-03-04T08:36:13.638Z,71.09
2017-03-04T08:36:39.838Z,70.99
2017-03-04T08:37:05.397Z,70.99
2017-03-04T08:37:31.607Z,71.09
2017-03-04T08:37:57.165Z,71.09
2017-03-04T08:38:22.719Z,70.99
2017-03-04T08:38:48.916Z,70.99
2017-03-04T08:39:14.519Z,71.09
2017-03-04T08:39:40.760Z,71.09
2017-03-04T08:40:06.364Z,71.09
2017-03-04T08:40:32.540Z,71.09
2017-03-04T08:40:58.594Z,71.19
2017-03-04T08:41:24.148Z,70.99
2017-03-04T08:41:49.916Z,71.09
2017-03-04T08:42:15.483Z,71.09
2017-03-04T08:42:41.808Z,71.09
2017-03-04T08:43:07.392Z,70.9
2017-03-04T08:43:33.065Z,71.09
2017-03-04T08:43:59.018Z,71.09
2017-03-04T08:44:24.586Z,71.09
2017-03-04T08:44:50.819Z,71.09
2017-03-04T08:45:17.255Z,70.9
2017-03-04T08:45:42.631Z,70.99
2017-03-04T08:46:08.193Z,70.9
2017-03-04T08:46:33.933Z,70.9
2017-03-04T08:46:59.999Z,71.37
2017-03-04T08:47:25.633Z,71.37
2017-03-04T08:47:51.770Z,71.09
2017-03-04T08:48:17.348Z,70.99
2017-03-04T08:48:42.949Z,70.99
2017-03-04T08:49:09.146Z,71.37
2017-03-04T08:49:34.738Z,70.99
2017-03-04T08:50:00.917Z,70.9
2017-03-04T08:50:26.488Z,70.9
2017-03-04T08:50:52.709Z,71.19
2017-03-04T08:51:18.314Z,70.8
2017-03-04T08:51:43.892Z,70.8
2017-03-04T08:52:10.925Z,70.99
2017-03-04T08:52:36.513Z,71.19
2017-03-04T08:53:02.107Z,71.09
2017-03-04T08:53:27.686Z,71.09
2017-03-04T08:53:53.262Z,70.99
2017-03-04T08:54:19.189Z,71.28
2017-03-04T08:54:44.768Z,70.9
2017-03-04T08:55:11.057Z,71.19
2017-03-04T08:55:36.618Z,70.8
2017-03-04T08:56:02.818Z,70.99
2017-03-04T08:56:28.366Z,70.99
2017-03-04T08:56:53.978Z,71.09
2017-03-04T08:57:20.119Z,70.99
2017-03-04T08:57:45.671Z,71.09
2017-03-04T08:58:11.923Z,70.99
2017-03-04T08:58:37.516Z,70.9
2017-03-04T08:59:03.175Z,71.19
2017-03-04T08:59:29.298Z,70.9
2017-03-04T08:59:54.857Z,71.09
2017-03-04T09:00:21.179Z,71.28
2017-03-04T09:00:46.740Z,70.9
2017-03-04T09:01:12.852Z,70.9
2017-03-04T09:01:38.506Z,71.28
2017-03-04T09:02:04.098Z,70.9
2017-03-04T09:02:30.216Z,71.09
2017-03-04T09:02:55.776Z,70.9
2017-03-04T09:03:22.191Z,70.9
2017-03-04T09:03:47.777Z,70.9
2017-03-04T09:04:13.353Z,71.09
2017-03-04T09:04:39.367Z,70.9
2017-03-04T09:05:04.985Z,71.09
2017-03-04T09:05:31.216Z,71.09
2017-03-04T09:05:56.776Z,70.9
2017-03-04T09:06:23.091Z,70.9
2017-03-04T09:06:48.699Z,71.09
2017-03-04T09:07:14.283Z,70.9
2017-03-04T09:07:40.302Z,70.9
2017-03-04T09:08:05.868Z,70.9
2017-03-04T09:08:32.139Z,70.9
2017-03-04T09:08:58.751Z,71.09
2017-03-04T09:09:24.364Z,71.09
2017-03-04T09:09:49.933Z,70.9
2017-03-04T09:10:15.581Z,71.19
2017-03-04T09:10:41.288Z,70.99
2017-03-04T09:11:06.874Z,70.99
2017-03-04T09:11:33.074Z,70.9
2017-03-04T09:11:58.607Z,70.8
2017-03-04T09:12:24.217Z,70.9
2017-03-04T09:12:50.389Z,71.09
2017-03-04T09:13:15.942Z,70.9
2017-03-04T09:13:42.202Z,70.99
2017-03-04T09:14:07.787Z,70.99
2017-03-04T09:14:33.360Z,71.09
2017-03-04T09:14:59.529Z,71.09
2017-03-04T09:15:25.093Z,70.99
2017-03-04T09:15:51.448Z,70.9
2017-03-04T09:16:17.027Z,71.28
2017-03-04T09:16:43.129Z,70.9
2017-03-04T09:17:08.707Z,71.09
2017-03-04T09:17:34.280Z,71.28
2017-03-04T09:18:00.489Z,70.9
2017-03-04T09:18:26.069Z,70.9
2017-03-04T09:18:52.462Z,71.09
2017-03-04T09:19:18.784Z,71.28
2017-03-04T09:19:44.330Z,70.99
2017-03-04T09:20:09.927Z,71.09
2017-03-04T09:20:35.642Z,71.09
2017-03-04T09:21:02.594Z,70.9
2017-03-04T09:21:28.249Z,71.09
2017-03-04T09:21:53.806Z,70.99
2017-03-04T09:22:19.351Z,70.99
2017-03-04T09:22:44.902Z,70.99
2017-03-04T09:23:10.614Z,70.99
2017-03-04T09:23:36.178Z,71.19
2017-03-04T09:24:02.379Z,71.37
2017-03-04T09:24:27.940Z,70.9
2017-03-04T09:24:53.547Z,70.99
2017-03-04T09:25:19.728Z,71.09
2017-03-04T09:25:45.302Z,70.9
2017-03-04T09:26:11.527Z,70.99
2017-03-04T09:26:37.105Z,71.19
2017-03-04T09:27:03.293Z,70.9
2017-03-04T09:27:29.063Z,70.99
2017-03-04T09:27:54.648Z,70.99
2017-03-04T09:28:20.633Z,70.7
2017-03-04T09:28:46.338Z,70.99
2017-03-04T09:29:12.515Z,71.09
2017-03-04T09:29:38.103Z,70.99
2017-03-04T09:30:03.731Z,70.7
2017-03-04T09:30:29.817Z,71.28
2017-03-04T09:30:55.379Z,70.99
2017-03-04T09:31:22.280Z,71.09
2017-03-04T09:31:47.197Z,71.19
2017-03-04T09:32:13.390Z,70.9
2017-03-04T09:32:38.946Z,71.37
2017-03-04T09:33:04.522Z,70.99
2017-03-04T09:33:30.708Z,71.28
2017-03-04T09:33:56.309Z,70.9
2017-03-04T09:34:22.528Z,71.19
2017-03-04T09:34:48.131Z,71.09
2017-03-04T09:35:13.703Z,71.09
2017-03-04T09:35:39.855Z,71.09
2017-03-04T09:36:05.434Z,71.09
2017-03-04T09:36:31.687Z,71.09
2017-03-04T09:36:57.389Z,71.19
2017-03-04T09:37:23.444Z,71.19
2017-03-04T09:37:48.991Z,70.99
2017-03-04T09:38:14.780Z,70.99
2017-03-04T09:38:40.846Z,70.99
2017-03-04T09:39:06.459Z,70.99
2017-03-04T09:39:32.599Z,71.19
2017-03-04T09:39:58.195Z,70.99
2017-03-04T09:40:23.782Z,71.19
2017-03-04T09:40:49.935Z,70.99
2017-03-04T09:41:15.497Z,71.19
2017-03-04T09:41:41.741Z,70.99
2017-03-04T09:42:07.304Z,70.99
2017-03-04T09:42:33.542Z,70.99
2017-03-04T09:42:59.301Z,70.99
2017-03-04T09:43:24.865Z,70.9
2017-03-04T09:43:50.898Z,70.99
2017-03-04T09:44:16.530Z,70.99
2017-03-04T09:44:42.691Z,70.9
2017-03-04T09:45:08.259Z,70.99
2017-03-04T09:45:33.950Z,70.99
2017-03-04T09:46:32.876Z,70.99
2017-03-04T09:46:58.453Z,70.99
2017-03-04T09:47:24.657Z,70.99
2017-03-04T09:47:49.580Z,71.09
2017-03-04T09:48:15.160Z,71.09
2017-03-04T09:48:40.803Z,71.19
2017-03-04T09:49:06.379Z,70.99
2017-03-04T09:49:31.937Z,70.99
2017-03-04T09:49:57.618Z,70.99
2017-03-04T09:50:23.227Z,71.09
2017-03-04T09:50:48.796Z,70.99
2017-03-04T09:51:14.586Z,70.99
2017-03-04T09:51:40.164Z,71.09
2017-03-04T09:52:06.653Z,70.9
2017-03-04T09:52:31.425Z,70.99
2017-03-04T09:52:56.990Z,70.9
2017-03-04T09:53:22.686Z,70.9
2017-03-04T09:53:48.290Z,70.99
2017-03-04T09:54:13.847Z,70.99
2017-03-04T09:54:39.400Z,71.19
2017-03-04T09:55:04.949Z,70.99
2017-03-04T09:55:30.502Z,71.09
2017-03-04T09:55:56.070Z,71.09
2017-03-04T09:56:21.629Z,70.99
2017-03-04T09:56:47.165Z,71.09
2017-03-04T09:57:12.864Z,71.09
2017-03-04T09:57:38.465Z,71.09
2017-03-04T09:58:04.019Z,71.28
2017-03-04T09:58:29.585Z,71.28
2017-03-04T09:58:55.124Z,71.28
2017-03-04T09:59:20.713Z,71.28
2017-03-04T09:59:46.296Z,71.19
2017-03-04T10:00:11.860Z,71.19
2017-03-04T10:00:37.432Z,71.19
2017-03-04T10:01:02.984Z,71.28
2017-03-04T10:01:28.599Z,71.19
2017-03-04T10:01:54.216Z,71.28
2017-03-04T10:02:19.984Z,71.19
2017-03-04T10:02:45.647Z,71.19
2017-03-04T10:03:11.208Z,71.28
2017-03-04T10:03:36.778Z,71.28
2017-03-04T10:04:02.346Z,71.09
2017-03-04T10:04:27.959Z,71.19
2017-03-04T10:04:53.522Z,70.99
2017-03-04T10:05:19.215Z,70.99
2017-03-04T10:05:45.878Z,71.19
2017-03-04T10:06:11.424Z,71.09
2017-03-04T10:06:37.076Z,70.99
2017-03-04T10:07:03.321Z,70.99
2017-03-04T10:07:28.878Z,71.19
2017-03-04T10:07:55.176Z,71.19
2017-03-04T10:08:20.762Z,70.99
2017-03-04T10:08:46.412Z,71.19
2017-03-04T10:09:11.962Z,71.09
2017-03-04T10:09:37.551Z,71.19
2017-03-04T10:10:03.108Z,71.09
2017-03-04T10:10:28.697Z,71.09
2017-03-04T10:10:54.260Z,71.09
2017-03-04T10:11:19.833Z,71.86
2017-03-04T10:11:45.403Z,71.09
2017-03-04T10:12:10.953Z,71.09
2017-03-04T10:12:37.204Z,71.76
2017-03-04T10:13:02.788Z,71.19
2017-03-04T10:13:28.353Z,71.09
2017-03-04T10:13:53.925Z,71.19
2017-03-04T10:14:19.600Z,71.57
2017-03-04T10:14:45.134Z,71.09
2017-03-04T10:15:10.695Z,70.99
2017-03-04T10:15:36.249Z,71.47
2017-03-04T10:16:01.870Z,71.28
2017-03-04T10:16:27.534Z,71.86
2017-03-04T10:16:53.099Z,71.09
2017-03-04T10:17:18.723Z,71.76
2017-03-04T10:17:45.175Z,71.57
2017-03-04T10:18:10.727Z,71.28
2017-03-04T10:18:37.174Z,70.7
2017-03-04T10:19:01.960Z,70.99
2017-03-04T10:19:27.575Z,71.28
2017-03-04T10:19:53.119Z,71.57
2017-03-04T10:20:18.664Z,71.57
2017-03-04T10:20:44.271Z,71.57
2017-03-04T10:21:09.838Z,71.57
2017-03-04T10:21:35.524Z,71.47
2017-03-04T10:22:01.204Z,71.57
2017-03-04T10:22:27.025Z,71.57
2017-03-04T10:22:52.611Z,71.66
2017-03-04T10:23:18.177Z,71.66
2017-03-04T10:23:43.830Z,71.37
2017-03-04T10:24:09.414Z,71.57
2017-03-04T10:24:34.993Z,71.57
2017-03-04T10:25:00.601Z,71.09
2017-03-04T10:25:27.673Z,71.57
2017-03-04T10:25:52.350Z,71.57
2017-03-04T10:26:17.916Z,71.51
2017-03-04T10:26:43.490Z,71.57
2017-03-04T10:27:09.677Z,71.47
2017-03-04T10:27:35.253Z,71.57
2017-03-04T10:28:00.948Z,71.57
2017-03-04T10:28:26.517Z,71.57
2017-03-04T10:28:52.165Z,71.57
2017-03-04T10:29:17.853Z,71.57
2017-03-04T10:29:43.485Z,71.47
2017-03-04T10:30:09.060Z,71.61
2017-03-04T10:30:34.962Z,71.57
2017-03-04T10:31:00.569Z,71.47
2017-03-04T10:31:26.131Z,71.57
2017-03-04T10:31:51.714Z,71.57
2017-03-04T10:32:17.251Z,71.57
2017-03-04T10:32:42.826Z,71.57
2017-03-04T10:33:08.382Z,71.47
2017-03-04T10:33:33.980Z,71.57
2017-03-04T10:33:59.643Z,71.61
2017-03-04T10:34:25.382Z,71.37
2017-03-04T10:34:50.959Z,71.47
2017-03-04T10:35:16.519Z,71.37
2017-03-04T10:35:42.067Z,71.57
2017-03-04T10:36:07.658Z,71.47